PWSweather.com
Personal Weather Stations
Station Observations
KCAFRAZI5
West End Drive Area, Frazier Park, CA 93225

West End Drive AreaFrazier Park, CA 93225

Lat: 34.82109, Lon: -118.96053

Elevation: 4940

Station Type: Davis Vantage Pro 2

http://www.fpweather.com

High Low Average
Temperature 66.0°F18.9°C 43.7°F6.5°C 55.0°F12.8°C
Dew Point 44.2°F6.8°C 19.4°F-7.0°C 35.2°F1.8°C
Winds 9.0 mph 14.5 kmh Calm Calm 3.0 mph SSW4.8 kmh SSW
Wind Gusts 13.0 mph20.9 kmh -- 6.0 mph9.7 kmh
Humidity 93% 22% 50%
Pressure 29.63 in1003.4 mb 29.50 in999.0 mb -
Precipitation 0.00 in0.0 mm - -
Hour Temp Dew Point Humidity Winds Wind Gusts Pressure Precip Precip Rate Daily Precip Total
12:00 AM 50.0°F10.0°C 26.0°F-3.3°C 39% 3.0 mph S4.8 kmh S 6.0 mph9.7 kmh 29.54 in1000.3 mb 0.00 in0.0 mm 0.00 in0.0 mm 0.00 in0.0 mm
12:15 AM 50.4°F10.2°C 26.4°F-3.1°C 39% 4.0 mph S6.4 kmh S 6.0 mph9.7 kmh 29.54 in1000.3 mb 0.00 in0.0 mm 0.00 in0.0 mm 0.00 in0.0 mm
12:30 AM 48.1°F8.9°C 24.9°F-3.9°C 40% 7.0 mph SSE11.3 kmh SSE 7.0 mph11.3 kmh 29.53 in1000.0 mb 0.00 in0.0 mm 0.00 in0.0 mm 0.00 in0.0 mm
12:45 AM 47.6°F8.7°C 25.1°F-3.8°C 41% 5.0 mph S8.0 kmh S 9.0 mph14.5 kmh 29.54 in1000.3 mb 0.00 in0.0 mm 0.00 in0.0 mm 0.00 in0.0 mm
01:00 AM 47.0°F8.3°C 25.1°F-3.8°C 42% 4.0 mph S6.4 kmh S 6.0 mph9.7 kmh 29.54 in1000.3 mb 0.00 in0.0 mm 0.00 in0.0 mm 0.00 in0.0 mm
01:15 AM 46.6°F8.1°C 24.8°F-4.0°C 42% 8.0 mph S12.9 kmh S 10.0 mph16.1 kmh 29.52 in999.7 mb 0.00 in0.0 mm 0.00 in0.0 mm 0.00 in0.0 mm
01:30 AM 46.6°F8.1°C 24.2°F-4.3°C 41% 4.0 mph S6.4 kmh S 6.0 mph9.7 kmh 29.53 in1000.0 mb 0.00 in0.0 mm 0.00 in0.0 mm 0.00 in0.0 mm
01:45 AM 45.6°F7.6°C 23.3°F-4.8°C 41% 9.0 mph S14.5 kmh S 9.0 mph14.5 kmh 29.54 in1000.3 mb 0.00 in0.0 mm 0.00 in0.0 mm 0.00 in0.0 mm
02:00 AM 45.6°F7.6°C 23.3°F-4.8°C 41% 8.0 mph SSE12.9 kmh SSE 8.0 mph12.9 kmh 29.54 in1000.3 mb 0.00 in0.0 mm 0.00 in0.0 mm 0.00 in0.0 mm
02:15 AM 45.8°F7.7°C 22.3°F-5.4°C 39% 3.0 mph SSW4.8 kmh SSW 6.0 mph9.7 kmh 29.54 in1000.3 mb 0.00 in0.0 mm 0.00 in0.0 mm 0.00 in0.0 mm
02:30 AM 46.4°F8.0°C 22.2°F-5.4°C 38% 5.0 mph S8.0 kmh S 7.0 mph11.3 kmh 29.53 in1000.0 mb 0.00 in0.0 mm 0.00 in0.0 mm 0.00 in0.0 mm
02:45 AM 46.3°F7.9°C 22.1°F-5.5°C 38% 6.0 mph S9.7 kmh S 9.0 mph14.5 kmh 29.53 in1000.0 mb 0.00 in0.0 mm 0.00 in0.0 mm 0.00 in0.0 mm
03:00 AM 45.3°F7.4°C 21.8°F-5.7°C 39% 4.0 mph S6.4 kmh S 7.0 mph11.3 kmh 29.52 in999.7 mb 0.00 in0.0 mm 0.00 in0.0 mm 0.00 in0.0 mm
03:15 AM 45.1°F7.3°C 21.6°F-5.8°C 39% 4.0 mph S6.4 kmh S 7.0 mph11.3 kmh 29.52 in999.7 mb 0.00 in0.0 mm 0.00 in0.0 mm 0.00 in0.0 mm
03:30 AM 46.0°F7.8°C 21.8°F-5.7°C 38% 3.0 mph S4.8 kmh S 8.0 mph12.9 kmh 29.54 in1000.3 mb 0.00 in0.0 mm 0.00 in0.0 mm 0.00 in0.0 mm
03:45 AM 45.7°F7.6°C 22.2°F-5.4°C 39% 5.0 mph S8.0 kmh S 6.0 mph9.7 kmh 29.53 in1000.0 mb 0.00 in0.0 mm 0.00 in0.0 mm 0.00 in0.0 mm
04:00 AM 44.8°F7.1°C 20.8°F-6.2°C 38% 4.0 mph S6.4 kmh S 7.0 mph11.3 kmh 29.53 in1000.0 mb 0.00 in0.0 mm 0.00 in0.0 mm 0.00 in0.0 mm
04:15 AM 45.0°F7.2°C 20.9°F-6.2°C 38% 3.0 mph S4.8 kmh S 6.0 mph9.7 kmh 29.54 in1000.3 mb 0.00 in0.0 mm 0.00 in0.0 mm 0.00 in0.0 mm
04:30 AM 44.4°F6.9°C 21.0°F-6.1°C 39% 3.0 mph SSE4.8 kmh SSE 5.0 mph8.0 kmh 29.55 in1000.7 mb 0.00 in0.0 mm 0.00 in0.0 mm 0.00 in0.0 mm
04:45 AM 44.2°F6.8°C 20.2°F-6.6°C 38% 3.0 mph S4.8 kmh S 5.0 mph8.0 kmh 29.55 in1000.7 mb 0.00 in0.0 mm 0.00 in0.0 mm 0.00 in0.0 mm
05:00 AM 43.9°F6.6°C 20.6°F-6.3°C 39% 6.0 mph S9.7 kmh S 8.0 mph12.9 kmh 29.55 in1000.7 mb 0.00 in0.0 mm 0.00 in0.0 mm 0.00 in0.0 mm
05:15 AM 43.7°F6.5°C 20.4°F-6.4°C 39% 5.0 mph S8.0 kmh S 6.0 mph9.7 kmh 29.55 in1000.7 mb 0.00 in0.0 mm 0.00 in0.0 mm 0.00 in0.0 mm
05:30 AM 43.9°F6.6°C 20.6°F-6.3°C 39% 5.0 mph S8.0 kmh S 6.0 mph9.7 kmh 29.56 in1001.0 mb 0.00 in0.0 mm 0.00 in0.0 mm 0.00 in0.0 mm
05:45 AM 44.8°F7.1°C 20.1°F-6.6°C 37% Calm Calm 5.0 mph8.0 kmh 29.56 in1001.0 mb 0.00 in0.0 mm 0.00 in0.0 mm 0.00 in0.0 mm
06:00 AM 47.0°F8.3°C 19.4°F-7.0°C 33% 2.0 mph S3.2 kmh S 4.0 mph6.4 kmh 29.55 in1000.7 mb 0.00 in0.0 mm 0.00 in0.0 mm 0.00 in0.0 mm
06:15 AM 48.1°F8.9°C 19.7°F-6.8°C 32% 3.0 mph S4.8 kmh S 5.0 mph8.0 kmh 29.54 in1000.3 mb 0.00 in0.0 mm 0.00 in0.0 mm 0.00 in0.0 mm
06:30 AM 46.9°F8.3°C 20.7°F-6.3°C 35% 5.0 mph S8.0 kmh S 5.0 mph8.0 kmh 29.55 in1000.7 mb 0.00 in0.0 mm 0.00 in0.0 mm 0.00 in0.0 mm
06:45 AM 49.7°F9.8°C 20.3°F-6.5°C 31% 4.0 mph S6.4 kmh S 5.0 mph8.0 kmh 29.56 in1001.0 mb 0.00 in0.0 mm 0.00 in0.0 mm 0.00 in0.0 mm
07:00 AM 52.5°F11.4°C 19.5°F-6.9°C 27% 3.0 mph S4.8 kmh S 4.0 mph6.4 kmh 29.54 in1000.3 mb 0.00 in0.0 mm 0.00 in0.0 mm 0.00 in0.0 mm
07:15 AM 56.5°F13.6°C 21.1°F-6.1°C 25% 3.0 mph SSE4.8 kmh SSE 3.0 mph4.8 kmh 29.53 in1000.0 mb 0.00 in0.0 mm 0.00 in0.0 mm 0.00 in0.0 mm
07:30 AM 59.8°F15.4°C 23.0°F-5.0°C 24% 2.0 mph NE3.2 kmh NE 3.0 mph4.8 kmh 29.52 in999.7 mb 0.00 in0.0 mm 0.00 in0.0 mm 0.00 in0.0 mm
07:45 AM 62.3°F16.8°C 23.0°F-5.0°C 22% 1.0 mph NE1.6 kmh NE 3.0 mph4.8 kmh 29.51 in999.3 mb 0.00 in0.0 mm 0.00 in0.0 mm 0.00 in0.0 mm
08:00 AM 63.3°F17.4°C 23.8°F-4.6°C 22% 2.0 mph NNW3.2 kmh NNW 3.0 mph4.8 kmh 29.50 in999.0 mb 0.00 in0.0 mm 0.00 in0.0 mm 0.00 in0.0 mm
08:15 AM 62.8°F17.1°C 28.4°F-2.0°C 27% 3.0 mph N4.8 kmh N 4.0 mph6.4 kmh 29.50 in999.0 mb 0.00 in0.0 mm 0.00 in0.0 mm 0.00 in0.0 mm
08:30 AM 62.2°F16.8°C 29.6°F-1.3°C 29% 2.0 mph 3.2 kmh 6.0 mph9.7 kmh 29.52 in999.7 mb 0.00 in0.0 mm 0.00 in0.0 mm 0.00 in0.0 mm
08:45 AM 62.0°F16.7°C 34.1°F1.2°C 35% 4.0 mph 6.4 kmh 5.0 mph8.0 kmh 29.53 in1000.0 mb 0.00 in0.0 mm 0.00 in0.0 mm 0.00 in0.0 mm
09:00 AM 61.9°F16.6°C 33.3°F0.7°C 34% 2.0 mph N3.2 kmh N 6.0 mph9.7 kmh 29.52 in999.7 mb 0.00 in0.0 mm 0.00 in0.0 mm 0.00 in0.0 mm
09:15 AM 63.0°F17.2°C 32.7°F0.4°C 32% 6.0 mph N9.7 kmh N 6.0 mph9.7 kmh 29.53 in1000.0 mb 0.00 in0.0 mm 0.00 in0.0 mm 0.00 in0.0 mm
09:30 AM 63.8°F17.7°C 32.6°F0.3°C 31% 1.0 mph N1.6 kmh N 5.0 mph8.0 kmh 29.55 in1000.7 mb 0.00 in0.0 mm 0.00 in0.0 mm 0.00 in0.0 mm
09:45 AM 64.3°F17.9°C 33.8°F1.0°C 32% 2.0 mph N3.2 kmh N 7.0 mph11.3 kmh 29.55 in1000.7 mb 0.00 in0.0 mm 0.00 in0.0 mm 0.00 in0.0 mm
10:00 AM 63.8°F17.7°C 35.7°F2.1°C 35% 7.0 mph N11.3 kmh N 7.0 mph11.3 kmh 29.55 in1000.7 mb 0.00 in0.0 mm 0.00 in0.0 mm 0.00 in0.0 mm
10:15 AM 63.6°F17.6°C 35.5°F1.9°C 35% 4.0 mph NNE6.4 kmh NNE 9.0 mph14.5 kmh 29.55 in1000.7 mb 0.00 in0.0 mm 0.00 in0.0 mm 0.00 in0.0 mm
10:30 AM 64.1°F17.8°C 35.9°F2.2°C 35% 9.0 mph 14.5 kmh 10.0 mph16.1 kmh 29.56 in1001.0 mb 0.00 in0.0 mm 0.00 in0.0 mm 0.00 in0.0 mm
10:45 AM 63.8°F17.7°C 37.1°F2.8°C 37% 2.0 mph NW3.2 kmh NW 9.0 mph14.5 kmh 29.56 in1001.0 mb 0.00 in0.0 mm 0.00 in0.0 mm 0.00 in0.0 mm
11:00 AM 63.3°F17.4°C 38.0°F3.3°C 39% 9.0 mph N14.5 kmh N 10.0 mph16.1 kmh 29.57 in1001.4 mb 0.00 in0.0 mm 0.00 in0.0 mm 0.00 in0.0 mm
11:15 AM 63.6°F17.6°C 38.9°F3.8°C 40% 6.0 mph N9.7 kmh N 6.0 mph9.7 kmh 29.56 in1001.0 mb 0.00 in0.0 mm 0.00 in0.0 mm 0.00 in0.0 mm
11:30 AM 64.3°F17.9°C 38.8°F3.8°C 39% 3.0 mph NNW4.8 kmh NNW 6.0 mph9.7 kmh 29.58 in1001.7 mb 0.00 in0.0 mm 0.00 in0.0 mm 0.00 in0.0 mm
11:45 AM 64.9°F18.3°C 40.7°F4.8°C 41% 7.0 mph N11.3 kmh N 11.0 mph17.7 kmh 29.58 in1001.7 mb 0.00 in0.0 mm 0.00 in0.0 mm 0.00 in0.0 mm
12:00 PM 65.4°F18.6°C 40.5°F4.7°C 40% 7.0 mph N11.3 kmh N 8.0 mph12.9 kmh 29.58 in1001.7 mb 0.00 in0.0 mm 0.00 in0.0 mm 0.00 in0.0 mm
12:15 PM 64.6°F18.1°C 41.6°F5.3°C 43% 9.0 mph 14.5 kmh 13.0 mph20.9 kmh 29.58 in1001.7 mb 0.00 in0.0 mm 0.00 in0.0 mm 0.00 in0.0 mm
12:30 PM 64.1°F17.8°C 42.9°F6.1°C 46% 4.0 mph 6.4 kmh 12.0 mph19.3 kmh 29.60 in1002.4 mb 0.00 in0.0 mm 0.00 in0.0 mm 0.00 in0.0 mm
12:45 PM 64.4°F18.0°C 41.4°F5.2°C 43% 9.0 mph 14.5 kmh 13.0 mph20.9 kmh 29.60 in1002.4 mb 0.00 in0.0 mm 0.00 in0.0 mm 0.00 in0.0 mm
01:00 PM 65.1°F18.4°C 43.3°F6.3°C 45% 3.0 mph NNE4.8 kmh NNE 9.0 mph14.5 kmh 29.60 in1002.4 mb 0.00 in0.0 mm 0.00 in0.0 mm 0.00 in0.0 mm
01:15 PM 64.6°F18.1°C 43.4°F6.3°C 46% 6.0 mph N9.7 kmh N 9.0 mph14.5 kmh 29.59 in1002.0 mb 0.00 in0.0 mm 0.00 in0.0 mm 0.00 in0.0 mm
01:30 PM 64.6°F18.1°C 43.4°F6.3°C 46% 4.0 mph 6.4 kmh 11.0 mph17.7 kmh 29.60 in1002.4 mb 0.00 in0.0 mm 0.00 in0.0 mm 0.00 in0.0 mm
01:45 PM 64.4°F18.0°C 42.6°F5.9°C 45% 6.0 mph 9.7 kmh 12.0 mph19.3 kmh 29.60 in1002.4 mb 0.00 in0.0 mm 0.00 in0.0 mm 0.00 in0.0 mm
02:00 PM 66.0°F18.9°C 43.5°F6.4°C 44% 5.0 mph NW8.0 kmh NW 10.0 mph16.1 kmh 29.61 in1002.7 mb 0.00 in0.0 mm 0.00 in0.0 mm 0.00 in0.0 mm
02:15 PM 65.2°F18.4°C 43.9°F6.6°C 46% 6.0 mph N9.7 kmh N 9.0 mph14.5 kmh 29.60 in1002.4 mb 0.00 in0.0 mm 0.00 in0.0 mm 0.00 in0.0 mm
02:30 PM 65.1°F18.4°C 43.3°F6.3°C 45% 3.0 mph N4.8 kmh N 9.0 mph14.5 kmh 29.60 in1002.4 mb 0.00 in0.0 mm 0.00 in0.0 mm 0.00 in0.0 mm
02:45 PM 64.9°F18.3°C 43.1°F6.2°C 45% 5.0 mph 8.0 kmh 11.0 mph17.7 kmh 29.60 in1002.4 mb 0.00 in0.0 mm 0.00 in0.0 mm 0.00 in0.0 mm
03:00 PM 64.8°F18.2°C 43.6°F6.4°C 46% 3.0 mph NW4.8 kmh NW 10.0 mph16.1 kmh 29.60 in1002.4 mb 0.00 in0.0 mm 0.00 in0.0 mm 0.00 in0.0 mm
03:15 PM 65.4°F18.6°C 44.1°F6.7°C 46% 2.0 mph 3.2 kmh 9.0 mph14.5 kmh 29.60 in1002.4 mb 0.00 in0.0 mm 0.00 in0.0 mm 0.00 in0.0 mm
03:30 PM 65.4°F18.6°C 44.1°F6.7°C 46% 5.0 mph N8.0 kmh N 6.0 mph9.7 kmh 29.60 in1002.4 mb 0.00 in0.0 mm 0.00 in0.0 mm 0.00 in0.0 mm
03:45 PM 64.3°F17.9°C 44.2°F6.8°C 48% 4.0 mph N6.4 kmh N 7.0 mph11.3 kmh 29.59 in1002.0 mb 0.00 in0.0 mm 0.00 in0.0 mm 0.00 in0.0 mm
04:00 PM 63.9°F17.7°C 43.9°F6.6°C 48% 4.0 mph NE6.4 kmh NE 7.0 mph11.3 kmh 29.61 in1002.7 mb 0.00 in0.0 mm 0.00 in0.0 mm 0.00 in0.0 mm
04:15 PM 63.5°F17.5°C 44.0°F6.7°C 49% 6.0 mph NNE9.7 kmh NNE 11.0 mph17.7 kmh 29.60 in1002.4 mb 0.00 in0.0 mm 0.00 in0.0 mm 0.00 in0.0 mm
04:30 PM 63.5°F17.5°C 43.5°F6.4°C 48% 4.0 mph NNE6.4 kmh NNE 5.0 mph8.0 kmh 29.60 in1002.4 mb 0.00 in0.0 mm 0.00 in0.0 mm 0.00 in0.0 mm
04:45 PM 62.7°F17.1°C 43.3°F6.3°C 49% 3.0 mph N4.8 kmh N 5.0 mph8.0 kmh 29.60 in1002.4 mb 0.00 in0.0 mm 0.00 in0.0 mm 0.00 in0.0 mm
05:00 PM 62.2°F16.8°C 43.4°F6.3°C 50% 1.0 mph 1.6 kmh 7.0 mph11.3 kmh 29.61 in1002.7 mb 0.00 in0.0 mm 0.00 in0.0 mm 0.00 in0.0 mm
05:15 PM 62.0°F16.7°C 43.7°F6.5°C 51% 3.0 mph N4.8 kmh N 10.0 mph16.1 kmh 29.61 in1002.7 mb 0.00 in0.0 mm 0.00 in0.0 mm 0.00 in0.0 mm
05:30 PM 61.2°F16.2°C 43.5°F6.4°C 52% 5.0 mph NW8.0 kmh NW 10.0 mph16.1 kmh 29.59 in1002.0 mb 0.00 in0.0 mm 0.00 in0.0 mm 0.00 in0.0 mm
05:45 PM 60.8°F16.0°C 43.6°F6.4°C 53% 2.0 mph NNW3.2 kmh NNW 7.0 mph11.3 kmh 29.60 in1002.4 mb 0.00 in0.0 mm 0.00 in0.0 mm 0.00 in0.0 mm
06:00 PM 59.7°F15.4°C 43.1°F6.2°C 54% 6.0 mph N9.7 kmh N 9.0 mph14.5 kmh 29.59 in1002.0 mb 0.00 in0.0 mm 0.00 in0.0 mm 0.00 in0.0 mm
06:15 PM 59.1°F15.1°C 42.5°F5.8°C 54% 2.0 mph 3.2 kmh 5.0 mph8.0 kmh 29.61 in1002.7 mb 0.00 in0.0 mm 0.00 in0.0 mm 0.00 in0.0 mm
06:30 PM 57.9°F14.4°C 42.8°F6.0°C 57% 4.0 mph N6.4 kmh N 6.0 mph9.7 kmh 29.58 in1001.7 mb 0.00 in0.0 mm 0.00 in0.0 mm 0.00 in0.0 mm
06:45 PM 56.9°F13.8°C 42.7°F5.9°C 59% 6.0 mph 9.7 kmh 6.0 mph9.7 kmh 29.60 in1002.4 mb 0.00 in0.0 mm 0.00 in0.0 mm 0.00 in0.0 mm
07:00 PM 56.3°F13.5°C 43.0°F6.1°C 61% 2.0 mph N3.2 kmh N 3.0 mph4.8 kmh 29.60 in1002.4 mb 0.00 in0.0 mm 0.00 in0.0 mm 0.00 in0.0 mm
07:15 PM 55.5°F13.1°C 43.1°F6.2°C 63% 3.0 mph N4.8 kmh N 4.0 mph6.4 kmh 29.60 in1002.4 mb 0.00 in0.0 mm 0.00 in0.0 mm 0.00 in0.0 mm
07:30 PM 54.6°F12.6°C 43.1°F6.2°C 65% 4.0 mph NNE6.4 kmh NNE 5.0 mph8.0 kmh 29.55 in1000.7 mb 0.00 in0.0 mm 0.00 in0.0 mm 0.00 in0.0 mm
07:45 PM 53.2°F11.8°C 43.3°F6.3°C 69% 3.0 mph N4.8 kmh N 3.0 mph4.8 kmh 29.56 in1001.0 mb 0.00 in0.0 mm 0.00 in0.0 mm 0.00 in0.0 mm
08:00 PM 52.2°F11.2°C 43.5°F6.4°C 72% Calm Calm 4.0 mph6.4 kmh 29.57 in1001.4 mb 0.00 in0.0 mm 0.00 in0.0 mm 0.00 in0.0 mm
08:15 PM 51.3°F10.7°C 43.3°F6.3°C 74% Calm Calm 2.0 mph3.2 kmh 29.57 in1001.4 mb 0.00 in0.0 mm 0.00 in0.0 mm 0.00 in0.0 mm
08:30 PM 50.4°F10.2°C 43.5°F6.4°C 77% Calm Calm 3.0 mph4.8 kmh 29.58 in1001.7 mb 0.00 in0.0 mm 0.00 in0.0 mm 0.00 in0.0 mm
08:45 PM 49.7°F9.8°C 43.5°F6.4°C 79% Calm Calm 1.0 mph1.6 kmh 29.59 in1002.0 mb 0.00 in0.0 mm 0.00 in0.0 mm 0.00 in0.0 mm
09:00 PM 49.1°F9.5°C 43.5°F6.4°C 81% Calm Calm -- 29.60 in1002.4 mb 0.00 in0.0 mm 0.00 in0.0 mm 0.00 in0.0 mm
09:15 PM 48.5°F9.2°C 43.6°F6.4°C 83% Calm Calm 1.0 mph1.6 kmh 29.61 in1002.7 mb 0.00 in0.0 mm 0.00 in0.0 mm 0.00 in0.0 mm
09:30 PM 48.2°F9.0°C 43.9°F6.6°C 85% Calm Calm -- 29.60 in1002.4 mb 0.00 in0.0 mm 0.00 in0.0 mm 0.00 in0.0 mm
09:45 PM 47.8°F8.8°C 44.1°F6.7°C 87% Calm Calm -- 29.61 in1002.7 mb 0.00 in0.0 mm 0.00 in0.0 mm 0.00 in0.0 mm
10:00 PM 46.7°F8.2°C 41.5°F5.3°C 82% Calm Calm -- 29.62 in1003.0 mb 0.00 in0.0 mm 0.00 in0.0 mm 0.00 in0.0 mm
10:15 PM 46.1°F7.8°C 40.9°F4.9°C 82% Calm Calm -- 29.62 in1003.0 mb 0.00 in0.0 mm 0.00 in0.0 mm 0.00 in0.0 mm
10:30 PM 46.0°F7.8°C 41.4°F5.2°C 84% Calm Calm -- 29.63 in1003.4 mb 0.00 in0.0 mm 0.00 in0.0 mm 0.00 in0.0 mm
10:45 PM 46.1°F7.8°C 42.8°F6.0°C 88% Calm Calm -- 29.62 in1003.0 mb 0.00 in0.0 mm 0.00 in0.0 mm 0.00 in0.0 mm
11:00 PM 45.0°F7.2°C 40.2°F4.6°C 83% Calm Calm -- 29.62 in1003.0 mb 0.00 in0.0 mm 0.00 in0.0 mm 0.00 in0.0 mm
11:15 PM 44.7°F7.1°C 40.5°F4.7°C 85% Calm Calm -- 29.63 in1003.4 mb 0.00 in0.0 mm 0.00 in0.0 mm 0.00 in0.0 mm
11:30 PM 45.3°F7.4°C 41.4°F5.2°C 86% Calm Calm -- 29.61 in1002.7 mb 0.00 in0.0 mm 0.00 in0.0 mm 0.00 in0.0 mm
11:45 PM 45.7°F7.6°C 42.9°F6.1°C 90% Calm Calm -- 29.61 in1002.7 mb 0.00 in0.0 mm 0.00 in0.0 mm 0.00 in0.0 mm